Time;durP1;ratioP1;P1;durP2;ratioP2;P2;SDS_P1;SDS_P2;PMS_P1;PMS_P2;Temp;Humidity;BMP_temperature;BMP_pressure;BME280_temperature;BME280_humidity;BME280_pressure;Samples;Min_cycle;Max_cycle;Signal;HPM_P1;HPM_P2
2022/01/19 00:00:07;;;;;;;;;;;1.80;87.90;;;;;;5166823;27;20343;-88
2022/01/19 00:02:32;;;;;;;;;;;1.60;88.30;;;;;;5165642;27;19918;-89
2022/01/19 00:04:58;;;;;;;;;;;1.60;89.10;;;;;;5152604;27;19911;-88
2022/01/19 00:07:23;;;;;;;;;;;1.60;89.90;;;;;;5164333;27;19920;-88
2022/01/19 00:09:49;;;;;;;;;;;1.50;90.50;;;;;;5157718;27;19930;-88
2022/01/19 00:12:14;;;;;;;;;;;1.40;90.20;;;;;;5150943;27;19951;-88
2022/01/19 00:14:40;;;;;;;;;;;1.30;89.80;;;;;;5146120;27;20009;-88
2022/01/19 00:20:24;;;;;;;;;;;1.20;90.70;;;;;;5152302;27;19911;-88
2022/01/19 00:24:13;;;;;;;;;;;1.20;91.40;;;;;;5092980;27;19930;-88
2022/01/19 00:26:38;;;;;;;;;;;1.20;91.70;;;;;;5089515;28;20004;-88
2022/01/19 00:29:04;;;;;;;;;;;1.20;91.90;;;;;;5089636;28;19946;-88
2022/01/19 00:31:30;;;;;;;;;;;1.30;92.10;;;;;;5089493;28;20251;-88
2022/01/19 00:33:55;;;;;;;;;;;1.40;92.10;;;;;;5089696;28;20397;-88
2022/01/19 00:36:21;;;;;;;;;;;1.30;92.30;;;;;;5088652;28;19919;-88
2022/01/19 00:38:46;;;;;;;;;;;1.20;92.50;;;;;;5086914;28;19913;-88
2022/01/19 00:41:12;;;;;;;;;;;1.20;92.40;;;;;;5122483;28;19919;-88
2022/01/19 00:43:38;;;;;;;;;;;1.10;92.40;;;;;;5089383;28;19925;-88
2022/01/19 00:46:03;;;;;;;;;;;1.10;92.40;;;;;;5089133;28;19959;-88
2022/01/19 00:48:29;;;;;;;;;;;1.00;92.10;;;;;;5089324;28;19938;-88
2022/01/19 00:50:55;;;;;;;;;;;1.00;91.90;;;;;;5090238;28;19915;-88
2022/01/19 00:53:21;;;;;;;;;;;1.00;91.90;;;;;;5089551;28;19912;-88
2022/01/19 00:55:47;;;;;;;;;;;1.20;92.10;;;;;;5087161;28;19919;-88
2022/01/19 00:58:12;;;;;;;;;;;1.20;92.00;;;;;;5087580;28;19912;-88
2022/01/19 01:00:38;;;;;;;;;;;1.40;92.00;;;;;;5087661;28;20046;-88
2022/01/19 01:03:04;;;;;;;;;;;1.40;91.40;;;;;;5089106;28;20293;-88
2022/01/19 01:05:30;;;;;;;;;;;1.40;90.80;;;;;;5089184;28;19919;-88
2022/01/19 01:07:56;;;;;;;;;;;1.40;90.70;;;;;;5086618;28;19913;-88
2022/01/19 01:10:22;;;;;;;;;;;1.50;90.80;;;;;;5086387;28;20400;-88
2022/01/19 01:12:53;;;;;;;;;;;1.60;90.60;;;;;;5087512;28;19989;-88
2022/01/19 01:15:47;;;;;;;;;;;1.70;90.40;;;;;;5088690;28;19912;-88
2022/01/19 01:18:22;;;;;;;;;;;1.60;90.20;;;;;;5086354;28;19924;-88
2022/01/19 01:20:52;;;;;;;;;;;1.40;89.70;;;;;;5087618;28;19934;-88
2022/01/19 01:23:19;;;;;;;;;;;1.20;89.70;;;;;;5089418;28;19917;-88
2022/01/19 01:25:45;;;;;;;;;;;1.30;91.50;;;;;;5087827;28;19935;-87
2022/01/19 01:28:11;;;;;;;;;;;1.40;91.30;;;;;;5086507;28;20362;-87
2022/01/19 01:30:37;;;;;;;;;;;1.30;90.70;;;;;;5069473;28;20366;-88
2022/01/19 01:33:03;;;;;;;;;;;1.20;90.60;;;;;;5080857;28;20373;-88
2022/01/19 01:35:29;;;;;;;;;;;1.10;91.80;;;;;;5075898;28;19966;-87
2022/01/19 01:37:54;;;;;;;;;;;1.10;91.70;;;;;;5073824;28;19928;-88
2022/01/19 01:40:22;;;;;;;;;;;1.00;91.40;;;;;;5065851;28;19935;-88
2022/01/19 01:42:47;;;;;;;;;;;1.00;91.00;;;;;;5075095;28;19975;-88
2022/01/19 01:45:15;;;;;;;;;;;1.00;90.90;;;;;;5075028;28;20386;-88
2022/01/19 01:47:47;;;;;;;;;;;1.00;91.20;;;;;;5075684;28;19908;-88
2022/01/19 01:55:24;;;;;;;;;;;1.20;91.00;;;;;;5059301;28;19959;-88
2022/01/19 01:57:50;;;;;;;;;;;1.20;91.00;;;;;;5066429;28;19927;-88
2022/01/19 02:00:18;;;;;;;;;;;1.20;90.70;;;;;;5073949;28;19913;-88
2022/01/19 02:02:45;;;;;;;;;;;1.10;90.20;;;;;;5073682;28;19916;-88
2022/01/19 02:05:11;;;;;;;;;;;1.00;90.00;;;;;;5074498;28;19908;-88
2022/01/19 02:07:45;;;;;;;;;;;0.90;90.20;;;;;;5073074;28;19920;-88
2022/01/19 02:10:29;;;;;;;;;;;0.90;90.30;;;;;;5071710;28;19912;-88
2022/01/19 02:15:55;;;;;;;;;;;0.90;90.40;;;;;;5074440;28;19920;-88
2022/01/19 02:23:52;;;;;;;;;;;1.00;90.00;;;;;;5070482;28;19927;-88
2022/01/19 02:26:31;;;;;;;;;;;0.90;90.00;;;;;;5068598;28;19912;-88
2022/01/19 02:42:40;;;;;;;;;;;1.00;89.30;;;;;;5055912;28;20282;-88
2022/01/19 02:49:58;;;;;;;;;;;0.90;88.70;;;;;;5074402;28;19909;-87
2022/01/19 02:52:25;;;;;;;;;;;0.80;88.80;;;;;;5072917;28;20381;-88
2022/01/19 02:54:51;;;;;;;;;;;0.70;88.60;;;;;;5074346;28;20008;-88
2022/01/19 02:57:19;;;;;;;;;;;0.80;89.40;;;;;;5060329;28;19913;-88
2022/01/19 03:10:20;;;;;;;;;;;0.90;89.90;;;;;;5072153;28;19923;-88
2022/01/19 03:12:45;;;;;;;;;;;1.00;89.80;;;;;;5073767;28;19909;-88
2022/01/19 03:15:12;;;;;;;;;;;1.10;89.70;;;;;;5071987;28;20366;-88
2022/01/19 03:17:37;;;;;;;;;;;1.20;89.70;;;;;;5054680;28;20373;-88
2022/01/19 03:20:04;;;;;;;;;;;1.20;89.30;;;;;;5053885;28;19909;-88
2022/01/19 03:22:37;;;;;;;;;;;1.20;89.80;;;;;;5064121;28;19972;-88
2022/01/19 03:25:03;;;;;;;;;;;1.00;90.00;;;;;;5067312;28;19913;-87
2022/01/19 03:27:28;;;;;;;;;;;0.90;90.30;;;;;;5055557;28;19920;-88
2022/01/19 03:29:54;;;;;;;;;;;0.90;90.30;;;;;;5072069;28;20015;-88
2022/01/19 03:32:20;;;;;;;;;;;0.90;90.50;;;;;;5072928;28;19919;-88
2022/01/19 03:34:45;;;;;;;;;;;0.80;90.00;;;;;;5073590;28;19908;-88
2022/01/19 03:37:11;;;;;;;;;;;0.70;90.00;;;;;;5064358;28;19916;-88
2022/01/19 03:39:37;;;;;;;;;;;0.70;90.30;;;;;;5073019;28;19947;-88
2022/01/19 03:42:02;;;;;;;;;;;0.90;90.50;;;;;;5072708;28;20393;-88
2022/01/19 03:44:28;;;;;;;;;;;1.00;90.70;;;;;;5070355;28;19938;-88
2022/01/19 03:46:57;;;;;;;;;;;1.10;90.90;;;;;;5071363;28;19923;-88
2022/01/19 03:49:26;;;;;;;;;;;1.20;90.90;;;;;;5072697;28;19973;-88
2022/01/19 03:51:53;;;;;;;;;;;1.30;90.80;;;;;;5071891;28;19912;-88
2022/01/19 03:54:19;;;;;;;;;;;1.20;90.20;;;;;;5053797;28;19944;-88
2022/01/19 03:56:44;;;;;;;;;;;1.10;89.50;;;;;;5067503;28;20100;-88
2022/01/19 03:59:10;;;;;;;;;;;0.90;88.10;;;;;;5067069;28;19927;-88
2022/01/19 04:01:35;;;;;;;;;;;0.70;87.50;;;;;;5056987;28;19916;-88
2022/01/19 04:04:26;;;;;;;;;;;0.50;87.40;;;;;;5064704;28;19943;-87
2022/01/19 04:09:20;;;;;;;;;;;0.30;88.90;;;;;;5072721;28;20358;-87
2022/01/19 04:11:45;;;;;;;;;;;0.20;89.40;;;;;;5068487;28;20011;-87
2022/01/19 04:14:24;;;;;;;;;;;0.30;90.10;;;;;;5069492;28;19982;-88
2022/01/19 04:16:53;;;;;;;;;;;0.30;90.00;;;;;;5072893;28;19991;-88
2022/01/19 04:21:47;;;;;;;;;;;0.40;90.10;;;;;;5058347;28;19954;-88
2022/01/19 04:24:12;;;;;;;;;;;0.50;90.10;;;;;;5055599;28;19920;-88
2022/01/19 04:26:38;;;;;;;;;;;0.60;89.90;;;;;;5072943;28;19915;-88
2022/01/19 04:29:04;;;;;;;;;;;0.70;89.80;;;;;;5072656;28;19912;-88
2022/01/19 04:31:29;;;;;;;;;;;0.60;89.20;;;;;;5054191;28;19913;-88
2022/01/19 04:33:59;;;;;;;;;;;0.60;89.00;;;;;;5064211;28;19920;-88
2022/01/19 04:36:32;;;;;;;;;;;0.50;88.80;;;;;;5071848;28;19920;-88
2022/01/19 05:06:00;;;;;;;;;;;0.50;89.90;;;;;;5071594;28;20320;-88
2022/01/19 05:13:39;;;;;;;;;;;0.60;89.60;;;;;;5073115;28;19990;-88
2022/01/19 05:16:05;;;;;;;;;;;0.60;91.00;;;;;;5056752;28;20374;-87
2022/01/19 05:18:30;;;;;;;;;;;0.60;90.80;;;;;;5058408;28;19913;-87
2022/01/19 05:20:56;;;;;;;;;;;0.20;88.80;;;;;;5056191;28;19999;-87
2022/01/19 05:23:22;;;;;;;;;;;-3276.70;88.80;;;;;;5060790;28;19920;-87
2022/01/19 05:25:47;;;;;;;;;;;-3276.70;89.90;;;;;;5074270;28;20365;-87
2022/01/19 05:28:13;;;;;;;;;;;-3276.70;90.40;;;;;;5075161;28;20362;-88
2022/01/19 05:30:39;;;;;;;;;;;0.00;91.20;;;;;;5075972;28;19913;-88
2022/01/19 05:33:05;;;;;;;;;;;0.00;91.70;;;;;;5068075;28;20427;-88
2022/01/19 05:35:30;;;;;;;;;;;0.20;92.00;;;;;;5075884;28;20282;-88
2022/01/19 05:37:56;;;;;;;;;;;0.20;91.50;;;;;;5072988;28;19913;-88
2022/01/19 05:40:21;;;;;;;;;;;0.00;90.70;;;;;;5075845;28;19908;-88
2022/01/19 05:42:49;;;;;;;;;;;-3276.70;90.10;;;;;;5074911;28;19916;-88
2022/01/19 05:45:15;;;;;;;;;;;-3276.60;90.30;;;;;;5075666;28;20358;-88
2022/01/19 05:47:41;;;;;;;;;;;-3276.50;90.50;;;;;;5070955;28;19913;-88
2022/01/19 05:50:06;;;;;;;;;;;-3276.60;91.20;;;;;;5058016;28;19924;-88
2022/01/19 05:52:32;;;;;;;;;;;0.00;91.30;;;;;;5065770;28;20358;-88
2022/01/19 05:54:57;;;;;;;;;;;0.10;91.50;;;;;;5058021;28;20350;-88
2022/01/19 05:57:23;;;;;;;;;;;-3276.70;90.40;;;;;;5068500;28;20284;-88
2022/01/19 05:59:49;;;;;;;;;;;-3276.60;90.60;;;;;;5069593;28;19959;-88
2022/01/19 06:02:16;;;;;;;;;;;-3276.60;91.30;;;;;;5068337;28;20397;-88
2022/01/19 06:04:42;;;;;;;;;;;-3276.70;91.80;;;;;;5064004;28;19913;-88
2022/01/19 06:07:08;;;;;;;;;;;0.00;91.50;;;;;;5070193;28;19913;-88
2022/01/19 06:09:49;;;;;;;;;;;0.00;91.20;;;;;;5067452;28;20278;-88
2022/01/19 06:12:15;;;;;;;;;;;0.00;91.30;;;;;;5070138;28;19917;-89
2022/01/19 06:14:43;;;;;;;;;;;0.00;91.40;;;;;;5070216;28;20366;-88
2022/01/19 06:17:09;;;;;;;;;;;0.00;91.30;;;;;;5059269;28;19982;-88
2022/01/19 06:19:35;;;;;;;;;;;0.00;91.30;;;;;;5065315;28;19916;-88
2022/01/19 06:22:01;;;;;;;;;;;-3276.70;91.30;;;;;;5064646;28;20420;-88
2022/01/19 06:24:27;;;;;;;;;;;-3276.70;91.20;;;;;;5069239;28;20373;-88
2022/01/19 06:26:53;;;;;;;;;;;-3276.70;90.90;;;;;;5063031;28;19912;-88
2022/01/19 06:29:18;;;;;;;;;;;0.00;91.50;;;;;;5063409;28;20412;-88
2022/01/19 06:31:44;;;;;;;;;;;0.00;91.50;;;;;;5061110;28;20015;-88
2022/01/19 06:34:10;;;;;;;;;;;0.00;91.30;;;;;;5062741;28;19913;-88
2022/01/19 06:36:35;;;;;;;;;;;-3276.70;91.40;;;;;;5066560;28;20374;-88
2022/01/19 06:39:01;;;;;;;;;;;-3276.60;90.90;;;;;;5061865;28;20375;-88
2022/01/19 06:41:27;;;;;;;;;;;-3276.60;91.40;;;;;;5062135;28;19913;-88
2022/01/19 06:43:52;;;;;;;;;;;-3276.60;91.40;;;;;;5064583;28;19916;-89
2022/01/19 06:46:18;;;;;;;;;;;-3276.60;91.20;;;;;;5071276;28;19921;-89
2022/01/19 06:48:43;;;;;;;;;;;-3276.40;91.40;;;;;;5062859;28;19922;-89
2022/01/19 06:51:09;;;;;;;;;;;-3276.30;91.60;;;;;;5069244;28;19919;-89
2022/01/19 06:53:34;;;;;;;;;;;-3276.40;92.20;;;;;;5065510;28;20389;-89
2022/01/19 06:56:00;;;;;;;;;;;-3276.40;92.50;;;;;;5071245;28;19917;-89
2022/01/19 06:58:26;;;;;;;;;;;-3276.40;92.60;;;;;;5068912;28;19919;-89
2022/01/19 07:00:52;;;;;;;;;;;-3276.60;92.80;;;;;;5065702;28;19920;-88
2022/01/19 07:03:18;;;;;;;;;;;-3276.70;92.90;;;;;;5066979;28;20431;-89
2022/01/19 07:05:43;;;;;;;;;;;0.00;92.60;;;;;;5063739;28;19921;-89
2022/01/19 07:08:09;;;;;;;;;;;0.00;92.00;;;;;;5062239;28;19921;-89
2022/01/19 07:10:34;;;;;;;;;;;0.00;91.60;;;;;;5060658;28;19917;-89
2022/01/19 07:13:01;;;;;;;;;;;0.00;91.50;;;;;;5060219;28;19931;-89
2022/01/19 07:15:27;;;;;;;;;;;0.00;91.50;;;;;;5083640;28;19965;-88
2022/01/19 07:17:52;;;;;;;;;;;0.00;91.60;;;;;;5064119;28;19917;-88
2022/01/19 07:20:18;;;;;;;;;;;0.10;91.50;;;;;;5069119;28;20431;-88
2022/01/19 07:22:43;;;;;;;;;;;0.10;91.20;;;;;;5059925;28;20354;-88
2022/01/19 07:25:09;;;;;;;;;;;-3276.60;89.90;;;;;;5060541;28;19912;-88
2022/01/19 07:27:35;;;;;;;;;;;-3276.40;90.10;;;;;;5060732;28;20759;-88
2022/01/19 07:30:00;;;;;;;;;;;-3276.40;90.80;;;;;;5061704;28;19948;-88
2022/01/19 07:32:30;;;;;;;;;;;-3276.40;91.60;;;;;;5060296;28;20003;-88
2022/01/19 07:34:55;;;;;;;;;;;-3276.40;92.00;;;;;;5066426;28;19971;-88
2022/01/19 07:37:21;;;;;;;;;;;-3276.40;92.30;;;;;;5065345;28;19956;-88
2022/01/19 07:39:47;;;;;;;;;;;-3276.50;92.40;;;;;;5059716;28;20371;-88
2022/01/19 07:42:33;;;;;;;;;;;-3276.60;92.70;;;;;;5100444;27;20392;-88
2022/01/19 07:44:59;;;;;;;;;;;-3276.70;93.10;;;;;;5087722;28;19912;-88
2022/01/19 07:47:27;;;;;;;;;;;-3276.70;92.90;;;;;;5085415;28;20332;-88
2022/01/19 07:49:53;;;;;;;;;;;0.00;92.90;;;;;;5088042;28;19919;-89
2022/01/19 07:52:19;;;;;;;;;;;0.00;92.80;;;;;;5095573;28;19912;-88
2022/01/19 07:54:44;;;;;;;;;;;0.00;92.70;;;;;;5086594;28;20340;-89
2022/01/19 07:57:10;;;;;;;;;;;0.10;93.20;;;;;;5087156;28;19912;-89
2022/01/19 07:59:35;;;;;;;;;;;0.20;93.20;;;;;;5080240;28;19920;-88
2022/01/19 08:02:01;;;;;;;;;;;0.40;93.20;;;;;;5079846;28;19936;-89
2022/01/19 08:04:26;;;;;;;;;;;0.50;93.20;;;;;;5080975;28;19919;-89
2022/01/19 08:06:55;;;;;;;;;;;0.60;93.10;;;;;;5082325;28;19920;-89
2022/01/19 08:09:21;;;;;;;;;;;0.70;93.00;;;;;;5086404;28;19963;-90
2022/01/19 08:11:47;;;;;;;;;;;0.80;93.00;;;;;;5079819;28;19952;-89
2022/01/19 08:14:12;;;;;;;;;;;0.80;93.00;;;;;;5080371;28;19966;-89
2022/01/19 08:16:38;;;;;;;;;;;0.90;93.00;;;;;;5079202;28;20436;-89
2022/01/19 08:19:04;;;;;;;;;;;1.00;93.00;;;;;;5087717;28;19988;-89
2022/01/19 08:21:29;;;;;;;;;;;1.00;93.00;;;;;;5081994;28;19970;-89
2022/01/19 08:23:55;;;;;;;;;;;1.20;93.10;;;;;;5082904;28;20278;-88
2022/01/19 08:26:20;;;;;;;;;;;1.30;93.30;;;;;;5077243;28;20370;-88
2022/01/19 08:28:47;;;;;;;;;;;1.40;92.50;;;;;;5076041;28;20366;-88
2022/01/19 08:31:12;;;;;;;;;;;1.40;92.10;;;;;;5085585;28;20386;-88
2022/01/19 08:33:38;;;;;;;;;;;1.60;91.80;;;;;;5079805;28;19965;-89
2022/01/19 08:36:04;;;;;;;;;;;1.70;91.70;;;;;;5076824;28;19920;-88
2022/01/19 08:38:29;;;;;;;;;;;1.90;91.50;;;;;;5078907;28;19927;-88
2022/01/19 08:40:55;;;;;;;;;;;1.90;91.30;;;;;;5078194;28;19921;-88
2022/01/19 08:43:20;;;;;;;;;;;2.10;90.80;;;;;;5084838;28;19918;-88
2022/01/19 08:45:46;;;;;;;;;;;2.20;90.80;;;;;;5080277;28;19963;-88
2022/01/19 08:48:12;;;;;;;;;;;2.30;90.50;;;;;;5086835;28;20377;-89
2022/01/19 08:50:37;;;;;;;;;;;2.40;90.20;;;;;;5082149;28;20345;-89
2022/01/19 08:53:03;;;;;;;;;;;2.50;89.80;;;;;;5072601;28;19919;-89
2022/01/19 08:55:29;;;;;;;;;;;2.50;89.70;;;;;;5061038;28;19919;-89
2022/01/19 08:57:54;;;;;;;;;;;2.70;89.80;;;;;;5061866;28;19960;-89
2022/01/19 09:00:21;;;;;;;;;;;2.80;89.40;;;;;;5061212;28;20409;-89
2022/01/19 09:02:46;;;;;;;;;;;3.00;88.80;;;;;;5066978;28;19924;-89
2022/01/19 09:05:12;;;;;;;;;;;3.10;88.90;;;;;;5072619;28;20291;-89
2022/01/19 09:07:38;;;;;;;;;;;3.20;88.80;;;;;;5062757;28;19934;-89
2022/01/19 09:10:05;;;;;;;;;;;3.20;87.90;;;;;;5067880;28;19966;-89
2022/01/19 09:12:31;;;;;;;;;;;3.40;88.00;;;;;;5065816;28;20252;-88
2022/01/19 09:14:57;;;;;;;;;;;3.50;88.00;;;;;;5065736;28;20046;-89
2022/01/19 09:17:23;;;;;;;;;;;3.50;87.20;;;;;;5068695;28;20387;-88
2022/01/19 09:19:48;;;;;;;;;;;3.60;86.40;;;;;;5066034;28;19920;-89
2022/01/19 09:22:14;;;;;;;;;;;3.70;86.90;;;;;;5063285;28;19979;-88
2022/01/19 09:24:40;;;;;;;;;;;3.80;85.60;;;;;;5061706;28;19913;-88
2022/01/19 09:27:08;;;;;;;;;;;3.80;85.10;;;;;;5067291;28;20019;-88
2022/01/19 09:29:37;;;;;;;;;;;4.00;84.80;;;;;;5068153;28;19963;-89
2022/01/19 09:32:07;;;;;;;;;;;4.00;84.60;;;;;;5074385;28;19912;-89
2022/01/19 09:34:33;;;;;;;;;;;4.10;84.60;;;;;;5073883;28;19939;-88
2022/01/19 09:36:58;;;;;;;;;;;4.20;84.10;;;;;;5082433;28;20356;-88
2022/01/19 09:39:25;;;;;;;;;;;4.30;83.70;;;;;;5094243;28;19912;-89
2022/01/19 09:41:51;;;;;;;;;;;4.40;84.80;;;;;;5074762;28;19928;-88
2022/01/19 09:44:17;;;;;;;;;;;4.50;84.80;;;;;;5073744;28;19958;-88
2022/01/19 09:46:43;;;;;;;;;;;4.60;85.10;;;;;;5073963;28;19912;-88
2022/01/19 09:49:09;;;;;;;;;;;4.70;84.10;;;;;;5074279;28;19962;-88
2022/01/19 09:51:35;;;;;;;;;;;4.70;83.80;;;;;;5074904;28;19916;-88
2022/01/19 09:54:01;;;;;;;;;;;4.80;83.30;;;;;;5074529;28;20255;-88
2022/01/19 09:56:27;;;;;;;;;;;4.90;83.10;;;;;;5074248;28;19909;-88
2022/01/19 09:58:53;;;;;;;;;;;5.00;81.90;;;;;;5074428;28;19915;-88
2022/01/19 10:01:20;;;;;;;;;;;5.00;81.40;;;;;;5074210;28;19920;-89
2022/01/19 10:03:46;;;;;;;;;;;5.10;81.70;;;;;;5066439;28;19917;-88
2022/01/19 10:06:13;;;;;;;;;;;5.30;80.70;;;;;;5067235;28;19952;-89
2022/01/19 10:08:39;;;;;;;;;;;5.40;80.50;;;;;;5068722;28;19918;-88
2022/01/19 10:11:10;;;;;;;;;;;5.50;80.80;;;;;;5060833;28;20011;-88
2022/01/19 10:19:12;;;;;;;;;;;5.80;78.30;;;;;;5066543;28;19951;-88
2022/01/19 10:21:54;;;;;;;;;;;5.90;78.30;;;;;;5065668;28;19923;-89
2022/01/19 10:24:31;;;;;;;;;;;5.90;77.40;;;;;;5064662;28;19913;-88
2022/01/19 10:27:15;;;;;;;;;;;6.00;76.70;;;;;;5068964;28;19913;-88
2022/01/19 10:29:41;;;;;;;;;;;6.00;77.40;;;;;;5064102;28;19912;-88
2022/01/19 10:32:07;;;;;;;;;;;6.00;76.10;;;;;;5059460;28;20394;-88
2022/01/19 10:34:34;;;;;;;;;;;6.00;77.80;;;;;;5062673;28;20400;-88
2022/01/19 10:37:04;;;;;;;;;;;6.10;77.30;;;;;;5062286;28;20393;-88
2022/01/19 10:40:00;;;;;;;;;;;6.10;75.60;;;;;;5061630;28;19919;-88
2022/01/19 10:42:27;;;;;;;;;;;6.20;76.10;;;;;;5064646;28;19928;-88
2022/01/19 10:44:57;;;;;;;;;;;6.30;76.30;;;;;;5064321;28;19913;-89
2022/01/19 10:47:37;;;;;;;;;;;6.30;75.80;;;;;;5068923;28;19913;-88
2022/01/19 10:50:03;;;;;;;;;;;6.40;75.70;;;;;;5055725;28;19940;-88
2022/01/19 10:52:33;;;;;;;;;;;6.50;75.60;;;;;;5063542;28;19959;-88
2022/01/19 10:54:59;;;;;;;;;;;6.50;75.20;;;;;;5063035;28;19912;-88
2022/01/19 10:57:26;;;;;;;;;;;6.60;74.70;;;;;;5057844;28;19917;-88
2022/01/19 10:59:53;;;;;;;;;;;6.70;74.20;;;;;;5070000;28;19924;-88
2022/01/19 11:02:19;;;;;;;;;;;6.80;74.20;;;;;;5061718;28;19986;-88
2022/01/19 11:04:46;;;;;;;;;;;6.90;73.80;;;;;;5059978;28;20342;-88
2022/01/19 11:07:13;;;;;;;;;;;6.80;74.00;;;;;;5071327;28;19975;-88
2022/01/19 11:09:46;;;;;;;;;;;6.80;75.20;;;;;;5071610;28;19920;-88
2022/01/19 11:12:17;;;;;;;;;;;6.80;74.20;;;;;;5064777;28;19916;-88
2022/01/19 11:14:43;;;;;;;;;;;6.80;73.20;;;;;;5054203;28;19958;-88
2022/01/19 11:17:09;;;;;;;;;;;6.90;73.10;;;;;;5059208;28;19913;-88
2022/01/19 11:19:39;;;;;;;;;;;7.00;73.20;;;;;;5073214;28;20358;-88
2022/01/19 11:22:23;;;;;;;;;;;7.10;73.40;;;;;;5066355;28;19916;-88
2022/01/19 11:25:04;;;;;;;;;;;7.10;73.30;;;;;;5053172;28;19909;-88
2022/01/19 11:27:36;;;;;;;;;;;7.30;73.20;;;;;;5061898;28;19913;-88
2022/01/19 11:30:15;;;;;;;;;;;7.40;72.40;;;;;;5070103;28;19967;-88
2022/01/19 11:32:41;;;;;;;;;;;7.50;71.80;;;;;;5071398;28;19970;-88
2022/01/19 11:35:08;;;;;;;;;;;7.70;71.70;;;;;;5066556;28;19913;-88
2022/01/19 11:37:36;;;;;;;;;;;7.80;71.70;;;;;;5073112;28;19954;-88
2022/01/19 11:40:06;;;;;;;;;;;7.70;72.40;;;;;;5070771;28;19958;-88
2022/01/19 11:42:32;;;;;;;;;;;7.70;71.50;;;;;;5052956;28;19929;-88
2022/01/19 11:44:57;;;;;;;;;;;7.80;71.80;;;;;;5053294;28;19909;-88
2022/01/19 11:47:24;;;;;;;;;;;8.00;70.00;;;;;;5064788;28;19917;-88
2022/01/19 11:49:50;;;;;;;;;;;8.10;69.40;;;;;;5052906;28;19940;-88
2022/01/19 11:52:16;;;;;;;;;;;8.00;67.70;;;;;;5052913;28;19940;-88
2022/01/19 11:54:42;;;;;;;;;;;8.00;67.90;;;;;;5052900;28;20004;-88
2022/01/19 11:57:08;;;;;;;;;;;7.90;68.40;;;;;;5070049;28;19997;-88
2022/01/19 11:59:50;;;;;;;;;;;8.20;68.40;;;;;;5072848;28;19919;-88
2022/01/19 12:02:24;;;;;;;;;;;8.70;66.80;;;;;;5071039;28;19939;-88
2022/01/19 12:04:52;;;;;;;;;;;9.00;65.50;;;;;;5072715;28;19970;-88
2022/01/19 12:07:34;;;;;;;;;;;9.50;63.70;;;;;;5066732;28;20075;-88
2022/01/19 12:09:59;;;;;;;;;;;9.90;61.20;;;;;;5052767;28;19955;-88
2022/01/19 12:12:29;;;;;;;;;;;10.30;61.00;;;;;;5056818;28;19916;-88
2022/01/19 12:14:55;;;;;;;;;;;10.40;60.00;;;;;;5057353;28;19959;-88
2022/01/19 12:17:27;;;;;;;;;;;10.20;59.70;;;;;;5072641;28;19947;-88
2022/01/19 12:19:55;;;;;;;;;;;10.10;61.70;;;;;;5072669;28;19908;-88
2022/01/19 12:22:22;;;;;;;;;;;10.40;60.00;;;;;;5070847;28;19912;-88
2022/01/19 12:25:08;;;;;;;;;;;10.70;59.10;;;;;;5060821;28;19916;-88
2022/01/19 12:27:35;;;;;;;;;;;10.90;57.90;;;;;;5063684;28;19912;-88
2022/01/19 12:30:05;;;;;;;;;;;11.10;57.70;;;;;;5060799;28;19913;-88
2022/01/19 12:32:44;;;;;;;;;;;11.20;57.80;;;;;;5063634;28;20000;-88
2022/01/19 12:35:17;;;;;;;;;;;11.50;56.00;;;;;;5069036;28;19920;-88
2022/01/19 12:37:51;;;;;;;;;;;11.80;55.40;;;;;;5068133;28;19912;-88
2022/01/19 12:40:16;;;;;;;;;;;12.20;54.80;;;;;;5065825;28;19940;-88
2022/01/19 12:42:46;;;;;;;;;;;12.40;53.90;;;;;;5069157;28;19970;-89
2022/01/19 12:45:18;;;;;;;;;;;12.60;54.00;;;;;;5067693;28;19932;-88
2022/01/19 12:47:46;;;;;;;;;;;12.80;54.60;;;;;;5068538;28;19908;-88
2022/01/19 12:50:11;;;;;;;;;;;12.70;54.80;;;;;;5068793;28;19943;-88
2022/01/19 12:52:41;;;;;;;;;;;12.10;55.70;;;;;;5063016;28;20370;-88
2022/01/19 12:55:14;;;;;;;;;;;11.60;57.20;;;;;;5066165;28;19958;-88
2022/01/19 12:57:40;;;;;;;;;;;11.30;59.10;;;;;;5067702;28;19913;-88
2022/01/19 13:00:08;;;;;;;;;;;11.60;58.00;;;;;;5065638;28;20294;-88
2022/01/19 13:02:33;;;;;;;;;;;11.90;57.90;;;;;;5064921;28;19947;-88
2022/01/19 13:05:04;;;;;;;;;;;11.90;57.00;;;;;;5069127;28;20302;-88
2022/01/19 13:07:31;;;;;;;;;;;11.80;57.60;;;;;;5066039;28;19912;-88
2022/01/19 13:10:02;;;;;;;;;;;12.10;56.20;;;;;;5066746;28;19920;-88
2022/01/19 13:12:36;;;;;;;;;;;12.50;55.00;;;;;;5065124;28;19913;-88
2022/01/19 13:15:02;;;;;;;;;;;12.60;53.70;;;;;;5065017;28;19966;-88
2022/01/19 13:17:47;;;;;;;;;;;12.60;54.20;;;;;;5072703;28;20015;-88
2022/01/19 13:20:15;;;;;;;;;;;13.00;53.70;;;;;;5067752;28;19920;-89
2022/01/19 13:22:46;;;;;;;;;;;13.10;53.50;;;;;;5062536;28;19935;-88
2022/01/19 13:25:35;;;;;;;;;;;13.10;52.60;;;;;;5066531;28;19912;-88
2022/01/19 13:28:01;;;;;;;;;;;12.90;52.90;;;;;;5063901;28;20366;-89
2022/01/19 13:30:28;;;;;;;;;;;12.40;54.90;;;;;;5064380;28;19913;-88
2022/01/19 13:32:54;;;;;;;;;;;12.40;56.80;;;;;;5067424;28;19938;-88
2022/01/19 13:35:21;;;;;;;;;;;12.10;56.40;;;;;;5068021;28;19912;-88
2022/01/19 13:37:55;;;;;;;;;;;12.10;57.40;;;;;;5064901;28;19913;-88
2022/01/19 13:40:22;;;;;;;;;;;12.10;58.60;;;;;;5068008;28;19916;-88
2022/01/19 13:42:51;;;;;;;;;;;11.90;59.20;;;;;;5067417;28;19927;-88
2022/01/19 13:45:29;;;;;;;;;;;12.20;57.70;;;;;;5064670;28;19913;-88
2022/01/19 13:48:05;;;;;;;;;;;12.60;57.90;;;;;;5069469;28;20204;-88
2022/01/19 13:50:35;;;;;;;;;;;12.70;57.40;;;;;;5068736;28;19912;-88
2022/01/19 13:53:01;;;;;;;;;;;12.90;56.20;;;;;;5071572;28;19982;-88
2022/01/19 13:55:26;;;;;;;;;;;12.90;56.50;;;;;;5069800;28;20375;-88
2022/01/19 13:58:03;;;;;;;;;;;12.60;57.70;;;;;;5062531;28;20415;-88
2022/01/19 14:00:28;;;;;;;;;;;12.70;56.40;;;;;;5062586;28;20046;-88
2022/01/19 14:03:00;;;;;;;;;;;12.50;57.10;;;;;;5062935;28;19999;-88
2022/01/19 14:05:35;;;;;;;;;;;12.80;57.90;;;;;;5068550;28;20441;-88
2022/01/19 14:08:01;;;;;;;;;;;12.40;59.10;;;;;;5065995;28;19960;-88
2022/01/19 14:10:37;;;;;;;;;;;12.30;60.60;;;;;;5083092;28;19948;-88
2022/01/19 14:13:19;;;;;;;;;;;11.90;60.20;;;;;;5069361;28;19952;-88
2022/01/19 14:15:45;;;;;;;;;;;11.70;61.40;;;;;;5066499;28;20187;-88
2022/01/19 14:18:11;;;;;;;;;;;11.30;63.30;;;;;;5066966;28;19955;-88
2022/01/19 14:20:36;;;;;;;;;;;10.90;64.80;;;;;;5059914;28;19913;-88
2022/01/19 14:23:12;;;;;;;;;;;10.90;65.40;;;;;;5058981;28;20322;-88
2022/01/19 14:25:38;;;;;;;;;;;10.90;66.10;;;;;;5064148;28;19913;-88
2022/01/19 14:28:12;;;;;;;;;;;10.90;66.20;;;;;;5061287;28;19920;-88
2022/01/19 14:30:37;;;;;;;;;;;10.80;66.90;;;;;;5065887;28;20027;-88
2022/01/19 14:33:09;;;;;;;;;;;10.70;67.40;;;;;;5062213;28;19939;-88
2022/01/19 14:35:40;;;;;;;;;;;10.50;67.50;;;;;;5057675;28;19912;-88
2022/01/19 14:38:16;;;;;;;;;;;10.70;67.30;;;;;;5061569;28;19924;-88
2022/01/19 14:41:01;;;;;;;;;;;10.70;66.90;;;;;;5066942;28;19927;-88
2022/01/19 14:43:38;;;;;;;;;;;10.00;69.00;;;;;;5063816;28;19913;-88
2022/01/19 14:46:08;;;;;;;;;;;9.40;71.60;;;;;;5059665;28;19913;-88
2022/01/19 14:48:38;;;;;;;;;;;8.90;74.20;;;;;;5084165;28;19913;-88
2022/01/19 14:51:27;;;;;;;;;;;8.40;75.80;;;;;;5059358;28;19920;-89
2022/01/19 14:55:48;;;;;;;;;;;8.30;76.90;;;;;;5104078;27;19930;-87
2022/01/19 14:58:14;;;;;;;;;;;8.20;77.00;;;;;;5089086;28;20281;-88
2022/01/19 15:00:41;;;;;;;;;;;8.00;77.80;;;;;;5088780;28;19920;-88
2022/01/19 15:03:07;;;;;;;;;;;7.90;78.40;;;;;;5087428;28;19999;-88
2022/01/19 15:05:34;;;;;;;;;;;7.50;79.60;;;;;;5084576;28;20059;-88
2022/01/19 15:07:59;;;;;;;;;;;7.10;81.20;;;;;;5085930;28;20413;-88
2022/01/19 15:10:27;;;;;;;;;;;6.60;82.60;;;;;;5082344;28;19912;-88
2022/01/19 15:12:53;;;;;;;;;;;6.20;84.50;;;;;;5079780;28;20442;-88
2022/01/19 15:15:21;;;;;;;;;;;6.00;85.50;;;;;;5081146;28;19924;-88
2022/01/19 15:17:47;;;;;;;;;;;5.70;86.50;;;;;;5087360;28;19917;-88
2022/01/19 15:20:12;;;;;;;;;;;5.40;87.30;;;;;;5074826;28;20243;-88
2022/01/19 15:22:38;;;;;;;;;;;5.30;88.80;;;;;;5078279;28;19967;-88
2022/01/19 15:25:04;;;;;;;;;;;5.00;89.80;;;;;;5081192;28;20275;-88
2022/01/19 15:27:29;;;;;;;;;;;4.90;90.50;;;;;;5084052;28;19917;-88
2022/01/19 15:29:55;;;;;;;;;;;4.90;91.10;;;;;;5078093;28;19920;-87
2022/01/19 15:32:20;;;;;;;;;;;4.70;91.50;;;;;;5075862;28;19930;-87
2022/01/19 15:34:46;;;;;;;;;;;4.50;92.00;;;;;;5078716;28;19925;-87
2022/01/19 15:37:12;;;;;;;;;;;4.50;92.50;;;;;;5095190;28;19965;-87
2022/01/19 15:39:39;;;;;;;;;;;4.50;92.80;;;;;;5081453;28;19919;-87
2022/01/19 15:42:05;;;;;;;;;;;4.50;93.00;;;;;;5078514;28;20034;-88
2022/01/19 15:44:31;;;;;;;;;;;4.50;93.10;;;;;;5075322;28;19923;-87
2022/01/19 15:46:56;;;;;;;;;;;4.40;93.20;;;;;;5084982;28;19931;-88
2022/01/19 15:49:22;;;;;;;;;;;4.40;93.40;;;;;;5080791;28;19912;-88
2022/01/19 15:51:47;;;;;;;;;;;4.50;93.50;;;;;;5081633;28;20041;-88
2022/01/19 15:54:16;;;;;;;;;;;4.50;93.40;;;;;;5079997;28;20027;-87
2022/01/19 15:56:44;;;;;;;;;;;4.60;93.30;;;;;;5080604;28;19936;-88
2022/01/19 15:59:10;;;;;;;;;;;4.60;93.30;;;;;;5088601;28;20276;-88